createdAt,value
2019-01-19T00:01:17.451Z,-8.00
2019-01-19T00:04:14.869Z,-8.00
2019-01-19T00:07:20.786Z,-8.20
2019-01-19T00:10:19.833Z,-8.40
2019-01-19T00:13:13.583Z,-8.50
2019-01-19T00:16:19.172Z,-8.60
2019-01-19T00:19:34.074Z,-8.80
2019-01-19T00:22:43.447Z,-8.90
2019-01-19T00:25:46.976Z,-9.00
2019-01-19T00:28:37.529Z,-9.10
2019-01-19T00:31:20.414Z,-9.20
2019-01-19T00:34:34.630Z,-9.20
2019-01-19T00:37:37.753Z,-9.20
2019-01-19T00:40:48.261Z,-9.30
2019-01-19T00:43:57.606Z,-9.50
2019-01-19T00:46:44.007Z,-9.60
2019-01-19T00:49:30.191Z,-9.70
2019-01-19T00:52:28.178Z,-9.80
2019-01-19T00:55:44.411Z,-9.80
2019-01-19T00:58:53.084Z,-9.90
2019-01-19T01:01:49.277Z,-10.00
2019-01-19T01:04:33.073Z,-10.00
2019-01-19T01:08:03.730Z,-9.90
2019-01-19T01:11:08.751Z,-9.80
2019-01-19T01:14:19.786Z,-9.60
2019-01-19T01:17:06.476Z,-9.50
2019-01-19T01:20:21.004Z,-9.40
2019-01-19T01:23:09.899Z,-9.30
2019-01-19T01:26:34.045Z,-9.30
2019-01-19T01:29:41.978Z,-9.20
2019-01-19T01:32:26.370Z,-9.20
2019-01-19T01:35:45.252Z,-9.20
2019-01-19T01:38:42.866Z,-9.30
2019-01-19T01:41:54.929Z,-9.40
2019-01-19T01:44:41.984Z,-9.50
2019-01-19T01:48:02.131Z,-9.60
2019-01-19T01:50:45.606Z,-9.60
2019-01-19T01:54:05.264Z,-9.70
2019-01-19T01:56:37.668Z,-9.70
2019-01-19T01:59:31.080Z,-9.70
2019-01-19T02:02:35.531Z,-9.60
2019-01-19T02:05:40.162Z,-9.60
2019-01-19T02:08:34.681Z,-9.70
2019-01-19T02:11:42.046Z,-9.70
2019-01-19T02:14:45.403Z,-9.70
2019-01-19T02:18:07.115Z,-9.80
2019-01-19T02:20:52.839Z,-9.90
2019-01-19T02:23:59.097Z,-10.10
2019-01-19T02:26:55.555Z,-10.30
2019-01-19T02:29:47.130Z,-10.40
2019-01-19T02:33:07.197Z,-10.40
2019-01-19T02:36:07.218Z,-10.50
2019-01-19T02:38:53.133Z,-10.70
2019-01-19T02:41:56.632Z,-10.80
2019-01-19T02:44:35.967Z,-10.90
2019-01-19T02:47:41.821Z,-11.00
2019-01-19T02:51:03.651Z,-11.00
2019-01-19T02:54:25.109Z,-11.00
2019-01-19T02:57:52.475Z,-11.10
2019-01-19T03:00:40.962Z,-11.20
2019-01-19T03:04:03.168Z,-11.30
2019-01-19T03:07:13.118Z,-11.40
2019-01-19T03:10:22.726Z,-11.50
2019-01-19T03:13:39.833Z,-11.60
2019-01-19T03:16:55.274Z,-11.60
2019-01-19T03:19:56.439Z,-11.70
2019-01-19T03:23:00.026Z,-11.90
2019-01-19T03:26:21.204Z,-12.00
2019-01-19T03:29:14.627Z,-12.00
2019-01-19T03:32:21.150Z,-12.00
2019-01-19T03:35:31.785Z,-12.10
2019-01-19T03:38:39.581Z,-12.00
2019-01-19T03:41:39.756Z,-12.10
2019-01-19T03:44:45.799Z,-12.20
2019-01-19T03:48:19.044Z,-12.30
2019-01-19T03:51:10.461Z,-12.40
2019-01-19T03:54:15.673Z,-12.50
2019-01-19T03:57:35.746Z,-12.50
2019-01-19T04:00:45.571Z,-12.60
2019-01-19T04:04:04.310Z,-12.60
2019-01-19T04:06:56.761Z,-12.70
2019-01-19T04:10:06.898Z,-12.80
2019-01-19T04:13:23.503Z,-12.90
2019-01-19T04:16:29.623Z,-13.00
2019-01-19T04:19:27.611Z,-13.00
2019-01-19T04:22:38.794Z,-13.10
2019-01-19T04:25:33.137Z,-13.20
2019-01-19T04:28:07.050Z,-13.30
2019-01-19T04:30:39.411Z,-13.30
2019-01-19T04:33:12.240Z,-13.40
2019-01-19T04:35:44.702Z,-13.50
2019-01-19T04:38:17.130Z,-13.60
2019-01-19T04:40:49.470Z,-13.70
2019-01-19T04:43:21.821Z,-13.80
2019-01-19T04:45:54.131Z,-13.90
2019-01-19T04:48:26.743Z,-14.00
2019-01-19T04:50:59.054Z,-14.20
2019-01-19T04:53:31.822Z,-14.30
2019-01-19T04:56:04.278Z,-14.40
2019-01-19T04:58:36.783Z,-14.50
2019-01-19T05:01:09.348Z,-14.60
2019-01-19T05:03:41.991Z,-14.70
2019-01-19T05:06:14.640Z,-14.70
2019-01-19T05:08:47.187Z,-14.80
2019-01-19T05:11:19.419Z,-14.90
2019-01-19T05:13:51.810Z,-15.00
2019-01-19T05:16:23.982Z,-15.20
2019-01-19T05:18:56.665Z,-15.30
2019-01-19T05:21:29.173Z,-15.40
2019-01-19T05:24:01.402Z,-15.50
2019-01-19T05:26:33.604Z,-15.70
2019-01-19T05:29:05.839Z,-15.80
2019-01-19T05:31:38.117Z,-15.90
2019-01-19T05:34:10.557Z,-16.00
2019-01-19T05:36:42.992Z,-16.00
2019-01-19T05:39:15.482Z,-16.20
2019-01-19T05:41:48.015Z,-16.20
2019-01-19T05:44:20.386Z,-16.30
2019-01-19T05:46:52.585Z,-16.40
2019-01-19T05:49:24.774Z,-16.50
2019-01-19T05:51:57.461Z,-16.60
2019-01-19T05:54:29.737Z,-16.60
2019-01-19T05:57:02.246Z,-16.70
2019-01-19T05:59:34.678Z,-16.80
2019-01-19T06:02:07.025Z,-16.90
2019-01-19T06:04:39.743Z,-17.00
2019-01-19T06:07:12.157Z,-17.10
2019-01-19T06:09:44.567Z,-17.10
2019-01-19T06:12:17.265Z,-17.20
2019-01-19T06:14:49.560Z,-17.20
2019-01-19T06:17:21.911Z,-17.30
2019-01-19T06:19:54.588Z,-17.40
2019-01-19T06:22:27.130Z,-17.50
2019-01-19T06:24:59.584Z,-17.50
2019-01-19T06:27:31.850Z,-17.60
2019-01-19T06:30:04.211Z,-17.70
2019-01-19T06:32:36.522Z,-17.70
2019-01-19T06:35:09.846Z,-17.70
2019-01-19T06:37:42.711Z,-17.70
2019-01-19T06:40:16.384Z,-17.80
2019-01-19T06:42:48.729Z,-17.80
2019-01-19T06:45:49.943Z,-17.90
2019-01-19T06:48:22.806Z,-17.90
2019-01-19T06:50:55.105Z,-18.00
2019-01-19T06:53:27.929Z,-18.00
2019-01-19T06:56:00.185Z,-18.10
2019-01-19T06:58:32.804Z,-18.20
2019-01-19T07:01:05.110Z,-18.20
2019-01-19T07:03:37.622Z,-18.30
2019-01-19T07:06:10.117Z,-18.30
2019-01-19T07:08:42.677Z,-18.40
2019-01-19T07:11:15.311Z,-18.40
2019-01-19T07:13:47.833Z,-18.50
2019-01-19T07:16:19.961Z,-18.50
2019-01-19T07:18:52.262Z,-18.50
2019-01-19T07:21:24.585Z,-18.60
2019-01-19T07:23:57.124Z,-18.70
2019-01-19T07:26:29.448Z,-18.70
2019-01-19T07:29:01.877Z,-18.80
2019-01-19T07:31:34.244Z,-18.90
2019-01-19T07:34:06.675Z,-18.90
2019-01-19T07:36:38.806Z,-19.00
2019-01-19T07:39:11.329Z,-19.10
2019-01-19T07:41:43.681Z,-19.10
2019-01-19T07:44:16.896Z,-19.20
2019-01-19T07:46:55.805Z,-19.30
2019-01-19T07:49:23.471Z,-19.30
2019-01-19T07:51:55.993Z,-19.40
2019-01-19T07:54:28.356Z,-19.40
2019-01-19T07:57:00.965Z,-19.50
2019-01-19T07:59:33.506Z,-19.60
2019-01-19T08:02:05.689Z,-19.60
2019-01-19T08:04:38.333Z,-19.70
2019-01-19T08:07:17.111Z,-19.70
2019-01-19T08:09:44.498Z,-19.70
2019-01-19T08:12:17.082Z,-19.70
2019-01-19T08:14:49.324Z,-19.80
2019-01-19T08:17:22.766Z,-19.80
2019-01-19T08:19:55.495Z,-19.80
2019-01-19T08:22:28.357Z,-19.80
2019-01-19T08:25:00.792Z,-19.80
2019-01-19T08:27:33.201Z,-19.90
2019-01-19T08:30:05.969Z,-19.90
2019-01-19T08:32:38.440Z,-20.00
2019-01-19T08:35:11.445Z,-20.10
2019-01-19T08:37:44.211Z,-20.10
2019-01-19T08:40:18.973Z,-20.20
2019-01-19T08:43:00.378Z,-20.20
2019-01-19T08:45:33.128Z,-20.30
2019-01-19T08:48:05.273Z,-20.40
2019-01-19T08:50:37.758Z,-20.30
2019-01-19T08:53:10.146Z,-20.30
2019-01-19T08:55:42.692Z,-20.40
2019-01-19T08:58:14.901Z,-20.40
2019-01-19T09:00:48.363Z,-20.50
2019-01-19T09:03:20.457Z,-20.50
2019-01-19T09:05:53.418Z,-20.60
2019-01-19T09:08:25.954Z,-20.70
2019-01-19T09:10:58.365Z,-20.70
2019-01-19T09:13:30.622Z,-20.70
2019-01-19T09:16:11.089Z,-20.80
2019-01-19T09:18:43.312Z,-20.80
2019-01-19T09:21:16.050Z,-20.80
2019-01-19T09:24:10.812Z,-20.70
2019-01-19T09:26:43.242Z,-20.80
2019-01-19T09:29:15.501Z,-20.80
2019-01-19T09:31:48.075Z,-20.90
2019-01-19T09:34:20.503Z,-20.90
2019-01-19T09:36:53.342Z,-20.90
2019-01-19T09:39:25.506Z,-20.90
2019-01-19T09:41:58.187Z,-21.00
2019-01-19T09:44:30.407Z,-21.10
2019-01-19T09:47:03.114Z,-21.10
2019-01-19T09:49:35.368Z,-21.10
2019-01-19T09:52:07.901Z,-21.10
2019-01-19T09:54:40.427Z,-21.20
2019-01-19T09:57:12.893Z,-21.20
2019-01-19T09:59:44.992Z,-21.20
2019-01-19T10:02:17.241Z,-21.20
2019-01-19T10:04:49.729Z,-21.20
2019-01-19T10:07:22.369Z,-21.20
2019-01-19T10:09:54.992Z,-21.30
2019-01-19T10:12:28.567Z,-21.30
2019-01-19T10:15:00.841Z,-21.30
2019-01-19T10:17:33.212Z,-21.30
2019-01-19T10:20:05.777Z,-21.30
2019-01-19T10:22:38.274Z,-21.40
2019-01-19T10:25:22.962Z,-21.50
2019-01-19T10:27:55.244Z,-21.50
2019-01-19T10:30:28.386Z,-21.50
2019-01-19T10:33:00.784Z,-21.50
2019-01-19T10:35:33.097Z,-21.50
2019-01-19T10:38:05.301Z,-21.60
2019-01-19T10:40:37.726Z,-21.70
2019-01-19T10:43:10.061Z,-21.80
2019-01-19T10:45:42.309Z,-21.80
2019-01-19T10:48:14.943Z,-21.90
2019-01-19T10:50:47.378Z,-21.90
2019-01-19T10:53:19.804Z,-21.90
2019-01-19T10:55:53.295Z,-21.90
2019-01-19T10:58:25.987Z,-22.00
2019-01-19T11:00:58.513Z,-22.00
2019-01-19T11:03:30.924Z,-22.00
2019-01-19T11:06:03.182Z,-22.10
2019-01-19T11:08:35.481Z,-22.00
2019-01-19T11:11:08.212Z,-22.10
2019-01-19T11:13:40.564Z,-22.10
2019-01-19T11:16:12.967Z,-22.10
2019-01-19T11:18:45.511Z,-22.10
2019-01-19T11:21:18.523Z,-22.10
2019-01-19T11:23:51.042Z,-22.10
2019-01-19T11:26:26.299Z,-22.10
2019-01-19T11:28:58.647Z,-22.10
2019-01-19T11:31:31.367Z,-22.10
2019-01-19T11:34:04.322Z,-22.10
2019-01-19T11:36:36.719Z,-22.10
2019-01-19T11:39:10.649Z,-22.10
2019-01-19T11:41:42.880Z,-22.10
2019-01-19T11:44:16.215Z,-22.10
2019-01-19T11:46:48.641Z,-22.10
2019-01-19T11:49:21.077Z,-22.10
2019-01-19T11:51:53.758Z,-22.10
2019-01-19T11:54:26.425Z,-22.10
2019-01-19T11:56:58.854Z,-22.10
2019-01-19T11:59:31.426Z,-22.10
2019-01-19T12:02:04.069Z,-22.10
2019-01-19T12:04:36.273Z,-22.10
2019-01-19T12:07:08.557Z,-22.10
2019-01-19T12:09:41.208Z,-22.10
2019-01-19T12:12:13.766Z,-22.10
2019-01-19T12:14:46.660Z,-22.10
2019-01-19T12:17:19.021Z,-22.10
2019-01-19T12:19:51.559Z,-22.10
2019-01-19T12:22:23.965Z,-22.10
2019-01-19T12:24:56.357Z,-22.10
2019-01-19T12:27:28.635Z,-22.10
2019-01-19T12:30:00.896Z,-22.10
2019-01-19T12:32:33.178Z,-22.10
2019-01-19T12:35:05.863Z,-22.00
2019-01-19T12:37:38.342Z,-22.00
2019-01-19T12:40:12.129Z,-22.00
2019-01-19T12:42:45.114Z,-22.00
2019-01-19T12:45:22.068Z,-21.90
2019-01-19T12:47:54.537Z,-21.90
2019-01-19T12:50:27.885Z,-21.90
2019-01-19T12:53:00.346Z,-21.90
2019-01-19T12:55:33.042Z,-21.90
2019-01-19T12:58:06.149Z,-21.80
2019-01-19T13:00:38.902Z,-21.80
2019-01-19T13:03:11.497Z,-21.80
2019-01-19T13:06:07.357Z,-21.80
2019-01-19T13:08:39.734Z,-21.70
2019-01-19T13:11:56.882Z,-21.60
2019-01-19T13:14:29.452Z,-21.60
2019-01-19T13:17:38.648Z,-21.50
2019-01-19T13:20:40.391Z,-21.40
2019-01-19T13:24:13.781Z,-21.20
2019-01-19T13:27:07.174Z,-21.20
2019-01-19T13:30:08.200Z,-21.00
2019-01-19T13:33:10.948Z,-20.90
2019-01-19T13:36:27.337Z,-20.90
2019-01-19T13:39:30.961Z,-20.80
2019-01-19T13:42:44.437Z,-20.60
2019-01-19T13:45:55.965Z,-20.40
2019-01-19T13:49:03.839Z,-20.30
2019-01-19T13:52:03.801Z,-20.20
2019-01-19T13:55:14.183Z,-20.10
2019-01-19T13:58:09.301Z,-20.00
2019-01-19T14:01:34.313Z,-20.10
2019-01-19T14:04:37.169Z,-20.00
2019-01-19T14:07:38.934Z,-20.10
2019-01-19T14:10:41.935Z,-20.10
2019-01-19T14:13:48.780Z,-20.10
2019-01-19T14:17:22.421Z,-20.00
2019-01-19T14:20:09.710Z,-20.00
2019-01-19T14:23:20.855Z,-19.90
2019-01-19T14:26:22.761Z,-19.80
2019-01-19T14:29:34.497Z,-19.60
2019-01-19T14:33:01.504Z,-19.50
2019-01-19T14:36:03.415Z,-19.30
2019-01-19T14:39:23.548Z,-19.10
2019-01-19T14:42:21.947Z,-19.20
2019-01-19T14:46:01.706Z,-19.20
2019-01-19T14:49:19.717Z,-19.20
2019-01-19T14:52:27.594Z,-19.10
2019-01-19T14:55:36.675Z,-18.90
2019-01-19T14:58:49.695Z,-18.90
2019-01-19T15:01:55.565Z,-19.00
2019-01-19T15:04:46.998Z,-19.00
2019-01-19T15:07:58.751Z,-18.80
2019-01-19T15:11:02.892Z,-18.70
2019-01-19T15:13:45.709Z,-18.80
2019-01-19T15:17:22.374Z,-18.70
2019-01-19T15:20:32.121Z,-18.70
2019-01-19T15:23:44.096Z,-18.70
2019-01-19T15:26:53.277Z,-18.60
2019-01-19T15:29:59.917Z,-18.40
2019-01-19T15:33:07.208Z,-18.40
2019-01-19T15:36:27.937Z,-18.40
2019-01-19T15:39:33.154Z,-18.50
2019-01-19T15:42:34.718Z,-18.20
2019-01-19T15:45:40.490Z,-18.10
2019-01-19T15:48:32.849Z,-18.10
2019-01-19T15:52:02.774Z,-17.90
2019-01-19T15:55:20.649Z,-17.80
2019-01-19T15:58:26.843Z,-17.60
2019-01-19T16:01:51.178Z,-17.50
2019-01-19T16:04:54.705Z,-17.30
2019-01-19T16:08:17.543Z,-17.30
2019-01-19T16:11:37.497Z,-17.50
2019-01-19T16:14:43.309Z,-17.20
2019-01-19T16:17:34.928Z,-17.30
2019-01-19T16:21:04.913Z,-17.50
2019-01-19T16:24:13.198Z,-17.20
2019-01-19T16:27:19.497Z,-17.30
2019-01-19T16:30:37.517Z,-17.20
2019-01-19T16:34:01.319Z,-17.30
2019-01-19T16:37:23.813Z,-17.20
2019-01-19T16:40:43.131Z,-17.20
2019-01-19T16:43:42.076Z,-17.20
2019-01-19T16:46:58.394Z,-17.40
2019-01-19T16:50:13.002Z,-17.40
2019-01-19T16:52:59.360Z,-16.90
2019-01-19T16:56:02.220Z,-16.60
2019-01-19T16:59:06.888Z,-16.80
2019-01-19T17:02:17.543Z,-16.80
2019-01-19T17:05:38.625Z,-16.70
2019-01-19T17:08:39.199Z,-16.80
2019-01-19T17:11:47.311Z,-16.90
2019-01-19T17:15:08.747Z,-16.90
2019-01-19T17:18:17.039Z,-16.80
2019-01-19T17:21:23.277Z,-16.80
2019-01-19T17:24:30.692Z,-16.70
2019-01-19T17:27:36.958Z,-16.90
2019-01-19T17:30:49.871Z,-16.90
2019-01-19T17:33:47.726Z,-16.80
2019-01-19T17:36:36.393Z,-16.90
2019-01-19T17:39:40.379Z,-17.00
2019-01-19T17:42:37.659Z,-17.00
2019-01-19T17:46:07.427Z,-17.20
2019-01-19T17:49:15.156Z,-17.10
2019-01-19T17:52:15.774Z,-17.40
2019-01-19T17:55:26.246Z,-17.30
2019-01-19T17:58:41.070Z,-17.10
2019-01-19T18:01:43.729Z,-17.20
2019-01-19T18:04:49.009Z,-17.20
2019-01-19T18:07:55.042Z,-17.30
2019-01-19T18:10:45.008Z,-17.10
2019-01-19T18:14:15.376Z,-17.60
2019-01-19T18:17:32.497Z,-17.70
2019-01-19T18:20:47.338Z,-17.50
2019-01-19T18:23:47.069Z,-17.90
2019-01-19T18:26:47.180Z,-17.90
2019-01-19T18:29:55.011Z,-18.00
2019-01-19T18:32:48.955Z,-18.20
2019-01-19T18:36:02.063Z,-18.40
2019-01-19T18:39:12.978Z,-18.20
2019-01-19T18:42:16.598Z,-18.40
2019-01-19T18:45:35.934Z,-18.20
2019-01-19T18:48:26.990Z,-18.60
2019-01-19T18:51:26.983Z,-18.80
2019-01-19T18:54:22.742Z,-18.80
2019-01-19T18:57:42.816Z,-18.40
2019-01-19T19:00:47.924Z,-18.50
2019-01-19T19:04:02.692Z,-18.60
2019-01-19T19:07:09.464Z,-18.40
2019-01-19T19:10:02.747Z,-18.10
2019-01-19T19:13:35.492Z,-18.20
2019-01-19T19:16:48.850Z,-18.60
2019-01-19T19:19:58.116Z,-18.80
2019-01-19T19:23:16.259Z,-19.10
2019-01-19T19:26:13.556Z,-18.80
2019-01-19T19:29:15.723Z,-18.40
2019-01-19T19:32:10.831Z,-18.30
2019-01-19T19:35:07.069Z,-18.30
2019-01-19T19:38:16.392Z,-18.50
2019-01-19T19:41:29.718Z,-18.50
2019-01-19T19:47:33.996Z,-18.70
2019-01-19T19:50:34.780Z,-18.40
2019-01-19T19:53:07.629Z,-18.30
2019-01-19T19:55:36.798Z,-18.80
2019-01-19T19:58:09.565Z,-18.70
2019-01-19T20:00:42.549Z,-18.90
2019-01-19T20:03:15.075Z,-18.90
2019-01-19T20:06:15.492Z,-18.90
2019-01-19T20:08:51.406Z,-19.00
2019-01-19T20:12:09.892Z,-19.10
2019-01-19T20:14:42.133Z,-19.00
2019-01-19T20:17:15.861Z,-19.00
2019-01-19T20:19:50.877Z,-19.00
2019-01-19T20:24:57.792Z,-19.10
2019-01-19T20:27:30.101Z,-19.30
2019-01-19T20:30:02.790Z,-19.30
2019-01-19T20:32:35.032Z,-19.40
2019-01-19T20:35:08.268Z,-19.40
2019-01-19T20:37:40.812Z,-19.30
2019-01-19T20:40:14.034Z,-19.30
2019-01-19T20:42:46.336Z,-19.30
2019-01-19T20:45:18.857Z,-19.30
2019-01-19T20:47:51.450Z,-19.40
2019-01-19T20:50:23.868Z,-19.30
2019-01-19T20:52:56.363Z,-19.40
2019-01-19T20:55:28.837Z,-19.70
2019-01-19T20:58:01.384Z,-19.70
2019-01-19T21:00:33.766Z,-19.70
2019-01-19T21:03:06.015Z,-19.90
2019-01-19T21:05:38.248Z,-19.90
2019-01-19T21:08:10.802Z,-19.90
2019-01-19T21:10:43.740Z,-19.90
2019-01-19T21:13:16.103Z,-19.90
2019-01-19T21:15:48.543Z,-19.90
2019-01-19T21:18:21.039Z,-19.90
2019-01-19T21:20:53.970Z,-20.00
2019-01-19T21:23:26.536Z,-20.10
2019-01-19T21:25:58.951Z,-20.20
2019-01-19T21:28:31.412Z,-20.30
2019-01-19T21:31:04.415Z,-20.40
2019-01-19T21:33:37.031Z,-20.30
2019-01-19T21:36:13.296Z,-20.50
2019-01-19T21:38:45.628Z,-20.50
2019-01-19T21:41:18.238Z,-20.50
2019-01-19T21:43:50.813Z,-20.50
2019-01-19T21:46:23.105Z,-20.50
2019-01-19T21:48:56.186Z,-20.50
2019-01-19T21:51:29.487Z,-20.60
2019-01-19T21:54:02.358Z,-20.50
2019-01-19T21:56:38.038Z,-20.50
2019-01-19T21:59:10.253Z,-20.50
2019-01-19T22:01:42.862Z,-20.60
2019-01-19T22:04:15.755Z,-20.60
2019-01-19T22:06:48.268Z,-20.70
2019-01-19T22:09:20.390Z,-20.70
2019-01-19T22:11:53.392Z,-20.70
2019-01-19T22:14:25.849Z,-20.70
2019-01-19T22:16:58.391Z,-20.70
2019-01-19T22:19:30.902Z,-20.70
2019-01-19T22:22:03.221Z,-20.70
2019-01-19T22:24:35.603Z,-20.70
2019-01-19T22:27:08.641Z,-20.70
2019-01-19T22:29:40.969Z,-20.70
2019-01-19T22:32:13.193Z,-20.70
2019-01-19T22:34:45.926Z,-20.60
2019-01-19T22:37:18.455Z,-20.60
2019-01-19T22:39:50.838Z,-20.60
2019-01-19T22:42:23.335Z,-20.60
2019-01-19T22:44:55.588Z,-20.50
2019-01-19T22:47:28.104Z,-20.50
2019-01-19T22:52:36.585Z,-20.60
2019-01-19T22:55:09.341Z,-20.60
2019-01-19T22:57:41.654Z,-20.60
2019-01-19T23:01:01.515Z,-20.60
2019-01-19T23:03:36.167Z,-20.60
2019-01-19T23:06:08.846Z,-20.60
2019-01-19T23:08:41.399Z,-20.60
2019-01-19T23:11:13.837Z,-20.60
2019-01-19T23:13:49.973Z,-20.60
2019-01-19T23:16:22.721Z,-20.60
2019-01-19T23:18:55.224Z,-20.70
2019-01-19T23:21:27.606Z,-20.70
2019-01-19T23:24:00.075Z,-20.70
2019-01-19T23:26:33.529Z,-20.60
2019-01-19T23:29:06.213Z,-20.60
2019-01-19T23:31:38.324Z,-20.60
2019-01-19T23:34:10.677Z,-20.60
2019-01-19T23:36:43.056Z,-20.60
2019-01-19T23:39:15.410Z,-20.70
2019-01-19T23:41:48.174Z,-20.60
2019-01-19T23:44:20.386Z,-20.60
2019-01-19T23:46:52.636Z,-20.60
2019-01-19T23:49:25.071Z,-20.60
2019-01-19T23:51:57.794Z,-20.60
2019-01-19T23:54:30.557Z,-20.70
2019-01-19T23:57:03.189Z,-20.60
2019-01-19T23:59:36.294Z,-20.70
